createdAt,value
2023-04-18T00:00:49.082Z,21.90
2023-04-18T00:03:16.766Z,21.57
2023-04-18T00:05:44.410Z,26.60
2023-04-18T00:08:11.997Z,24.90
2023-04-18T00:10:39.401Z,26.20
2023-04-18T00:13:06.642Z,26.47
2023-04-18T00:15:37.318Z,23.67
2023-04-18T00:18:06.630Z,18.90
2023-04-18T00:20:33.980Z,21.53
2023-04-18T00:23:02.093Z,23.77
2023-04-18T00:25:29.490Z,21.03
2023-04-18T00:27:56.692Z,22.13
2023-04-18T00:30:24.109Z,18.93
2023-04-18T00:32:51.451Z,18.93
2023-04-18T00:35:20.119Z,19.77
2023-04-18T00:37:47.492Z,22.93
2023-04-18T00:40:14.973Z,21.30
2023-04-18T00:42:42.220Z,19.53
2023-04-18T00:45:09.988Z,25.73
2023-04-18T00:47:37.373Z,20.70
2023-04-18T00:50:05.185Z,22.80
2023-04-18T00:52:35.154Z,23.97
2023-04-18T00:55:05.676Z,20.40
2023-04-18T00:57:33.050Z,20.77
2023-04-18T01:00:02.039Z,20.77
2023-04-18T01:02:30.886Z,21.90
2023-04-18T01:05:00.990Z,19.77
2023-04-18T01:07:28.610Z,19.53
2023-04-18T01:09:56.129Z,21.30
2023-04-18T01:12:23.453Z,18.60
2023-04-18T01:14:50.959Z,19.17
2023-04-18T01:17:19.567Z,18.87
2023-04-18T01:19:49.643Z,20.17
2023-04-18T01:22:18.100Z,21.70
2023-04-18T01:24:45.881Z,20.70
2023-04-18T01:27:14.447Z,20.87
2023-04-18T01:29:41.987Z,23.00
2023-04-18T01:32:09.286Z,17.50
2023-04-18T01:34:37.014Z,20.40
2023-04-18T01:37:04.240Z,26.10
2023-04-18T01:39:31.690Z,20.40
2023-04-18T01:41:59.784Z,19.20
2023-04-18T01:44:27.146Z,18.90
2023-04-18T01:46:54.537Z,20.43
2023-04-18T01:49:21.946Z,18.80
2023-04-18T01:51:49.293Z,21.40
2023-04-18T01:54:17.259Z,18.30
2023-04-18T01:56:44.884Z,23.33
2023-04-18T01:59:12.300Z,21.33
2023-04-18T02:01:39.693Z,21.03
2023-04-18T02:04:06.931Z,21.13
2023-04-18T02:06:34.256Z,17.30
2023-04-18T02:09:01.870Z,16.77
2023-04-18T02:11:30.091Z,19.53
2023-04-18T02:13:57.772Z,18.87
2023-04-18T02:16:25.285Z,16.07
2023-04-18T02:18:52.818Z,16.50
2023-04-18T02:21:20.234Z,16.00
2023-04-18T02:23:48.012Z,15.87
2023-04-18T02:26:15.707Z,16.13
2023-04-18T02:28:43.177Z,17.30
2023-04-18T02:31:15.169Z,18.33
2023-04-18T02:33:47.977Z,19.43
2023-04-18T02:36:15.569Z,17.73
2023-04-18T02:38:42.890Z,16.07
2023-04-18T02:41:15.436Z,16.37
2023-04-18T02:43:42.677Z,17.93
2023-04-18T02:46:10.161Z,15.40
2023-04-18T02:48:37.877Z,16.73
2023-04-18T02:51:06.463Z,15.03
2023-04-18T02:53:35.054Z,14.90
2023-04-18T02:56:03.299Z,17.40
2023-04-18T02:58:30.695Z,15.07
2023-04-18T03:00:58.973Z,15.73
2023-04-18T03:03:26.563Z,17.93
2023-04-18T03:05:53.960Z,14.90
2023-04-18T03:08:21.234Z,15.33
2023-04-18T03:10:49.159Z,16.13
2023-04-18T03:13:17.760Z,17.73
2023-04-18T03:15:45.139Z,16.10
2023-04-18T03:18:12.798Z,20.50
2023-04-18T03:20:41.341Z,17.70
2023-04-18T03:23:08.608Z,15.83
2023-04-18T03:25:36.147Z,17.93
2023-04-18T03:28:03.473Z,17.57
2023-04-18T03:30:31.079Z,16.17
2023-04-18T03:33:01.271Z,16.63
2023-04-18T03:35:29.081Z,17.83
2023-04-18T03:37:59.827Z,18.07
2023-04-18T03:40:27.165Z,16.47
2023-04-18T03:42:54.887Z,17.90
2023-04-18T03:45:22.307Z,16.00
2023-04-18T03:47:49.688Z,19.10
2023-04-18T03:50:17.144Z,15.77
2023-04-18T03:52:44.367Z,16.40
2023-04-18T03:55:11.750Z,17.63
2023-04-18T03:57:41.245Z,17.10
2023-04-18T04:00:09.364Z,16.33
2023-04-18T04:02:37.161Z,17.73
2023-04-18T04:05:05.749Z,18.83
2023-04-18T04:07:34.402Z,14.83
2023-04-18T04:10:01.786Z,18.00
2023-04-18T04:12:30.139Z,16.10
2023-04-18T04:14:57.391Z,16.03
2023-04-18T04:17:24.712Z,16.23
2023-04-18T04:19:52.366Z,15.97
2023-04-18T04:22:20.411Z,15.33
2023-04-18T04:24:48.245Z,18.20
2023-04-18T04:27:15.561Z,13.80
2023-04-18T04:29:44.398Z,13.07
2023-04-18T04:32:13.179Z,15.13
2023-04-18T04:34:41.692Z,15.30
2023-04-18T04:37:09.881Z,14.47
2023-04-18T04:39:37.114Z,15.00
2023-04-18T04:42:04.792Z,14.80
2023-04-18T04:44:32.190Z,13.77
2023-04-18T04:46:59.740Z,16.00
2023-04-18T04:49:27.718Z,13.07
2023-04-18T04:51:55.077Z,15.63
2023-04-18T04:54:22.327Z,13.30
2023-04-18T04:56:49.998Z,15.07
2023-04-18T04:59:17.640Z,16.53
2023-04-18T05:01:46.021Z,13.53
2023-04-18T05:04:14.265Z,12.97
2023-04-18T05:06:42.052Z,15.10
2023-04-18T05:09:09.285Z,12.23
2023-04-18T05:11:37.011Z,13.10
2023-04-18T05:14:04.348Z,12.00
2023-04-18T05:16:32.035Z,11.63
2023-04-18T05:18:59.532Z,11.37
2023-04-18T05:21:28.866Z,10.47
2023-04-18T05:23:56.517Z,11.10
2023-04-18T05:26:24.692Z,11.43
2023-04-18T05:28:52.009Z,10.53
2023-04-18T05:31:19.631Z,10.83
2023-04-18T05:33:47.382Z,11.07
2023-04-18T05:36:15.012Z,10.33
2023-04-18T05:38:42.337Z,11.80
2023-04-18T05:41:09.833Z,10.67
2023-04-18T05:43:37.903Z,12.70
2023-04-18T05:46:05.459Z,12.60
2023-04-18T05:48:32.712Z,13.63
2023-04-18T05:51:00.224Z,11.90
2023-04-18T05:53:27.451Z,11.77
2023-04-18T05:55:55.559Z,12.20
2023-04-18T05:58:22.927Z,12.97
2023-04-18T06:00:50.383Z,13.23
2023-04-18T06:03:17.929Z,12.73
2023-04-18T06:05:45.545Z,11.80
2023-04-18T06:08:12.983Z,11.30
2023-04-18T06:10:40.295Z,12.70
2023-04-18T06:13:07.560Z,13.93
2023-04-18T06:15:35.955Z,12.90
2023-04-18T06:18:03.579Z,11.83
2023-04-18T06:20:31.018Z,12.90
2023-04-18T06:22:58.297Z,12.80
2023-04-18T06:25:26.489Z,14.47
2023-04-18T06:27:53.807Z,12.27
2023-04-18T06:30:22.262Z,12.63
2023-04-18T06:32:49.938Z,11.87
2023-04-18T06:35:17.340Z,13.47
2023-04-18T06:37:45.590Z,11.97
2023-04-18T06:40:13.286Z,11.90
2023-04-18T06:42:40.678Z,12.13
2023-04-18T06:45:08.797Z,12.07
2023-04-18T06:47:36.548Z,13.50
2023-04-18T06:50:04.457Z,12.43
2023-04-18T06:52:31.926Z,13.80
2023-04-18T06:54:59.252Z,12.77
2023-04-18T06:57:27.036Z,12.40
2023-04-18T06:59:54.435Z,14.07
2023-04-18T07:02:21.829Z,16.83
2023-04-18T07:04:49.519Z,14.87
2023-04-18T07:07:17.159Z,14.00
2023-04-18T07:09:44.574Z,16.37
2023-04-18T07:12:12.726Z,16.67
2023-04-18T07:14:40.185Z,15.00
2023-04-18T07:17:07.940Z,16.17
2023-04-18T07:19:35.956Z,14.57
2023-04-18T07:22:03.557Z,15.77
2023-04-18T07:24:31.393Z,15.37
2023-04-18T07:26:58.878Z,16.03
2023-04-18T07:29:26.937Z,14.53
2023-04-18T07:31:54.656Z,14.07
2023-04-18T07:34:23.245Z,13.53
2023-04-18T07:36:50.669Z,17.43
2023-04-18T07:39:18.159Z,18.27
2023-04-18T07:41:45.992Z,17.77
2023-04-18T07:44:13.389Z,17.90
2023-04-18T07:46:41.337Z,23.90
2023-04-18T07:49:08.988Z,19.43
2023-04-18T07:51:36.413Z,26.73
2023-04-18T07:54:04.648Z,16.30
2023-04-18T07:56:32.271Z,21.93
2023-04-18T07:58:59.712Z,33.23
2023-04-18T08:01:27.788Z,23.07
2023-04-18T08:03:56.918Z,15.50
2023-04-18T08:06:24.699Z,15.63
2023-04-18T08:08:52.761Z,31.80
2023-04-18T08:11:20.231Z,49.67
2023-04-18T08:13:48.248Z,36.17
2023-04-18T08:16:17.441Z,17.47
2023-04-18T08:18:45.050Z,42.33
2023-04-18T08:21:12.796Z,19.73
2023-04-18T08:23:40.195Z,13.93
2023-04-18T08:26:07.835Z,13.57
2023-04-18T08:28:35.844Z,12.90
2023-04-18T08:31:03.318Z,13.40
2023-04-18T08:33:30.927Z,14.97
2023-04-18T08:35:58.463Z,13.60
2023-04-18T08:38:26.412Z,13.83
2023-04-18T08:40:54.075Z,13.93
2023-04-18T08:43:21.523Z,11.87
2023-04-18T08:45:48.951Z,13.60
2023-04-18T08:48:17.994Z,11.33
2023-04-18T08:50:46.220Z,13.13
2023-04-18T08:53:13.770Z,13.53
2023-04-18T08:55:42.411Z,10.97
2023-04-18T08:58:12.735Z,11.10
2023-04-18T09:00:40.596Z,12.17
2023-04-18T09:03:08.154Z,11.83
2023-04-18T09:05:35.951Z,14.23
2023-04-18T09:08:24.549Z,33.93
2023-04-18T09:10:52.134Z,12.27
2023-04-18T09:13:39.188Z,11.10
2023-04-18T09:16:06.928Z,10.43
2023-04-18T09:18:34.396Z,10.87
2023-04-18T09:21:21.256Z,11.17
2023-04-18T09:23:50.592Z,10.13
2023-04-18T09:26:35.155Z,9.87
2023-04-18T09:29:03.662Z,10.07
2023-04-18T09:31:31.208Z,10.83
2023-04-18T09:33:58.772Z,9.57
2023-04-18T09:36:28.228Z,12.07
2023-04-18T09:38:56.980Z,11.60
2023-04-18T09:41:25.286Z,10.97
2023-04-18T09:44:13.536Z,9.40
2023-04-18T09:46:45.149Z,12.00
2023-04-18T09:49:15.015Z,12.37
2023-04-18T09:51:43.840Z,10.57
2023-04-18T09:54:15.507Z,11.80
2023-04-18T09:56:45.641Z,11.57
2023-04-18T09:59:19.226Z,12.20
2023-04-18T10:01:49.920Z,10.80
2023-04-18T10:04:18.096Z,9.97
2023-04-18T10:06:47.567Z,11.53
2023-04-18T10:09:16.397Z,8.27
2023-04-18T10:11:44.785Z,10.47
2023-04-18T10:14:14.949Z,9.77
2023-04-18T10:16:47.106Z,10.53
2023-04-18T10:19:26.660Z,12.03
2023-04-18T10:21:59.572Z,10.37
2023-04-18T10:24:49.963Z,12.53
2023-04-18T10:27:37.541Z,11.23
2023-04-18T10:30:05.453Z,10.83
2023-04-18T10:32:34.272Z,7.93
2023-04-18T10:35:01.760Z,7.10
2023-04-18T10:37:29.269Z,9.53
2023-04-18T10:40:06.900Z,9.20
2023-04-18T10:42:48.926Z,9.63
2023-04-18T10:45:19.175Z,8.63
2023-04-18T10:47:47.159Z,8.83
2023-04-18T10:50:15.249Z,7.73
2023-04-18T10:52:43.811Z,11.00
2023-04-18T10:55:16.826Z,8.47
2023-04-18T10:57:47.287Z,7.40
2023-04-18T11:00:19.097Z,8.80
2023-04-18T11:02:56.640Z,9.55
2023-04-18T11:05:27.071Z,7.35
2023-04-18T11:07:54.814Z,8.05
2023-04-18T11:10:27.129Z,8.27
2023-04-18T11:12:55.955Z,11.38
2023-04-18T11:15:25.251Z,49.07
2023-04-18T11:17:58.491Z,36.58
2023-04-18T11:20:26.951Z,39.77
2023-04-18T11:22:59.276Z,72.63
2023-04-18T11:25:32.307Z,8.93
2023-04-18T11:28:04.341Z,8.48
2023-04-18T11:30:41.833Z,10.98
2023-04-18T11:33:13.791Z,7.88
2023-04-18T11:35:42.975Z,9.60
2023-04-18T11:38:13.202Z,9.05
2023-04-18T11:40:48.732Z,8.05
2023-04-18T11:43:21.980Z,8.77
2023-04-18T11:45:56.651Z,12.15
2023-04-18T11:48:24.983Z,9.82
2023-04-18T11:50:52.394Z,9.43
2023-04-18T11:53:36.319Z,12.87
2023-04-18T11:56:04.592Z,8.13
2023-04-18T11:58:33.589Z,8.03
2023-04-18T12:01:17.515Z,8.80
2023-04-18T12:03:59.820Z,8.47
2023-04-18T12:06:28.589Z,8.70
2023-04-18T12:09:00.496Z,6.67
2023-04-18T12:11:31.805Z,8.25
2023-04-18T12:13:59.030Z,7.82
2023-04-18T12:16:31.015Z,7.70
2023-04-18T12:19:01.145Z,9.88
2023-04-18T12:21:30.421Z,13.82
2023-04-18T12:23:58.860Z,10.45
2023-04-18T12:26:27.887Z,7.33
2023-04-18T12:28:55.255Z,7.95
2023-04-18T12:31:22.821Z,8.37
2023-04-18T12:33:51.292Z,10.82
2023-04-18T12:36:18.536Z,9.48
2023-04-18T12:38:46.934Z,9.35
2023-04-18T12:41:14.368Z,7.80
2023-04-18T12:43:41.665Z,6.60
2023-04-18T12:46:09.001Z,8.07
2023-04-18T12:48:36.278Z,8.77
2023-04-18T12:51:03.581Z,7.70
2023-04-18T12:53:31.000Z,8.30
2023-04-18T12:55:58.384Z,9.50
2023-04-18T12:58:25.770Z,9.73
2023-04-18T13:00:53.360Z,10.17
2023-04-18T13:03:21.393Z,11.43
2023-04-18T13:05:48.748Z,9.87
2023-04-18T13:08:18.144Z,12.90
2023-04-18T13:10:47.223Z,11.33
2023-04-18T13:13:14.581Z,12.50
2023-04-18T13:15:42.023Z,11.77
2023-04-18T13:18:09.407Z,12.13
2023-04-18T13:20:36.917Z,13.13
2023-04-18T13:23:04.312Z,10.83
2023-04-18T13:25:31.856Z,9.83
2023-04-18T13:28:01.917Z,11.87
2023-04-18T13:30:29.926Z,20.90
2023-04-18T13:32:57.300Z,14.47
2023-04-18T13:35:24.825Z,13.20
2023-04-18T13:37:52.208Z,22.47
2023-04-18T13:40:19.643Z,11.50
2023-04-18T13:42:59.527Z,11.80
2023-04-18T13:45:26.924Z,16.23
2023-04-18T13:47:54.284Z,15.43
2023-04-18T13:50:23.586Z,11.00
2023-04-18T13:52:52.231Z,12.47
2023-04-18T13:55:20.204Z,10.50
2023-04-18T13:57:47.718Z,11.40
2023-04-18T14:00:15.600Z,8.95
2023-04-18T14:02:43.013Z,13.27
2023-04-18T14:05:10.939Z,10.82
2023-04-18T14:07:38.682Z,10.35
2023-04-18T14:10:06.694Z,15.20
2023-04-18T14:12:49.440Z,13.13
2023-04-18T14:18:45.509Z,15.83
2023-04-18T14:21:13.119Z,13.30
2023-04-18T14:23:40.483Z,49.20
2023-04-18T14:26:07.900Z,31.40
2023-04-18T14:28:35.300Z,18.97
2023-04-18T14:31:03.263Z,10.13
2023-04-18T14:33:30.596Z,36.60
2023-04-18T14:35:58.442Z,45.43
2023-04-18T14:38:26.997Z,48.43
2023-04-18T14:40:55.363Z,11.93
2023-04-18T14:43:22.701Z,14.97
2023-04-18T14:45:50.563Z,14.90
2023-04-18T14:48:18.231Z,24.90
2023-04-18T14:50:46.238Z,10.80
2023-04-18T14:53:13.962Z,12.90
2023-04-18T14:55:41.296Z,18.23
2023-04-18T14:58:08.518Z,52.50
2023-04-18T15:00:36.012Z,17.63
2023-04-18T15:03:04.109Z,19.53
2023-04-18T15:05:31.600Z,42.13
2023-04-18T15:07:59.357Z,43.30
2023-04-18T15:10:26.813Z,25.00
2023-04-18T15:12:54.096Z,24.93
2023-04-18T15:15:22.907Z,37.63
2023-04-18T15:17:50.510Z,42.80
2023-04-18T15:20:17.935Z,18.57
2023-04-18T15:22:45.569Z,37.17
2023-04-18T15:25:16.591Z,39.87
2023-04-18T15:27:44.173Z,52.43
2023-04-18T15:30:12.513Z,13.93
2023-04-18T15:32:42.973Z,17.37
2023-04-18T15:35:11.877Z,22.73
2023-04-18T15:37:39.191Z,26.07
2023-04-18T15:40:11.895Z,21.27
2023-04-18T15:42:39.786Z,22.30
2023-04-18T15:45:08.687Z,20.57
2023-04-18T15:47:36.634Z,22.37
2023-04-18T15:50:04.131Z,15.83
2023-04-18T15:52:32.525Z,35.17
2023-04-18T15:55:00.839Z,23.93
2023-04-18T15:57:29.989Z,16.70
2023-04-18T15:59:58.737Z,29.60
2023-04-18T16:02:26.900Z,27.33
2023-04-18T16:04:54.713Z,27.70
2023-04-18T16:07:22.294Z,32.50
2023-04-18T16:09:49.772Z,33.50
2023-04-18T16:12:17.135Z,32.27
2023-04-18T16:14:44.585Z,31.30
2023-04-18T16:17:11.944Z,26.73
2023-04-18T16:19:40.183Z,19.57
2023-04-18T16:22:07.590Z,17.33
2023-04-18T16:24:39.163Z,20.63
2023-04-18T16:27:07.719Z,27.73
2023-04-18T16:29:35.532Z,32.73
2023-04-18T16:32:03.240Z,30.20
2023-04-18T16:34:31.161Z,30.87
2023-04-18T16:36:58.451Z,22.97
2023-04-18T16:39:26.315Z,22.37
2023-04-18T16:41:53.809Z,24.43
2023-04-18T16:44:21.180Z,23.07
2023-04-18T16:46:48.506Z,32.87
2023-04-18T16:49:16.229Z,20.27
2023-04-18T16:51:44.001Z,22.57
2023-04-18T16:54:11.417Z,42.77
2023-04-18T16:56:38.763Z,20.93
2023-04-18T16:59:09.558Z,25.40
2023-04-18T17:01:37.370Z,24.00
2023-04-18T17:04:05.378Z,19.90
2023-04-18T17:06:32.955Z,18.60
2023-04-18T17:09:00.312Z,20.13
2023-04-18T17:11:28.177Z,19.73
2023-04-18T17:13:56.711Z,16.90
2023-04-18T17:16:24.392Z,16.80
2023-04-18T17:18:52.093Z,15.47
2023-04-18T17:21:27.731Z,19.54
2023-04-18T17:23:56.831Z,14.93
2023-04-18T17:26:25.963Z,24.13
2023-04-18T17:28:54.173Z,17.33
2023-04-18T17:31:21.610Z,16.87
2023-04-18T17:33:51.196Z,12.27
2023-04-18T17:36:19.200Z,16.43
2023-04-18T17:38:50.105Z,14.20
2023-04-18T17:41:19.709Z,13.87
2023-04-18T17:43:47.954Z,15.37
2023-04-18T17:46:16.213Z,16.70
2023-04-18T17:48:43.603Z,14.77
2023-04-18T17:51:11.182Z,16.50
2023-04-18T17:53:38.594Z,21.80
2023-04-18T17:56:06.488Z,16.80
2023-04-18T17:58:33.783Z,23.83
2023-04-18T18:01:01.412Z,14.33
2023-04-18T18:03:29.172Z,19.00
2023-04-18T18:05:56.683Z,16.43
2023-04-18T18:08:24.843Z,20.60
2023-04-18T18:10:52.325Z,16.53
2023-04-18T18:13:19.724Z,19.23
2023-04-18T18:15:47.522Z,20.60
2023-04-18T18:18:14.959Z,29.97
2023-04-18T18:20:46.277Z,27.77
2023-04-18T18:23:14.815Z,31.97
2023-04-18T18:25:42.166Z,28.53
2023-04-18T18:28:09.372Z,30.23
2023-04-18T18:30:38.257Z,33.73
2023-04-18T18:33:06.074Z,26.83
2023-04-18T18:35:33.679Z,22.87
2023-04-18T18:38:01.380Z,23.63
2023-04-18T18:40:28.865Z,21.07
2023-04-18T18:42:57.342Z,23.80
2023-04-18T18:45:24.685Z,19.20
2023-04-18T18:47:52.067Z,21.03
2023-04-18T18:50:19.471Z,21.23
2023-04-18T18:52:47.481Z,23.00
2023-04-18T18:55:15.550Z,26.10
2023-04-18T18:57:42.871Z,24.40
2023-04-18T19:00:11.379Z,26.70
2023-04-18T19:02:39.691Z,25.77
2023-04-18T19:05:07.689Z,27.63
2023-04-18T19:07:35.139Z,25.80
2023-04-18T19:10:02.521Z,30.00
2023-04-18T19:12:29.894Z,28.27
2023-04-18T19:14:57.228Z,27.37
2023-04-18T19:17:25.127Z,32.87
2023-04-18T19:19:53.409Z,27.63
2023-04-18T19:22:20.822Z,30.77
2023-04-18T19:24:48.245Z,26.30
2023-04-18T19:27:15.599Z,30.43
2023-04-18T19:29:42.940Z,29.97
2023-04-18T19:32:10.316Z,27.37
2023-04-18T19:34:38.157Z,27.63
2023-04-18T19:37:05.475Z,29.77
2023-04-18T19:39:32.977Z,28.23
2023-04-18T19:42:01.254Z,24.73
2023-04-18T19:44:28.675Z,31.03
2023-04-18T19:46:56.217Z,30.87
2023-04-18T19:49:23.839Z,27.60
2023-04-18T19:51:53.418Z,28.17
2023-04-18T19:54:22.087Z,28.53
2023-04-18T19:56:50.105Z,27.80
2023-04-18T19:59:17.540Z,22.43
2023-04-18T20:01:45.106Z,22.17
2023-04-18T20:04:13.289Z,21.83
2023-04-18T20:06:41.019Z,19.97
2023-04-18T20:09:15.669Z,21.27
2023-04-18T20:11:43.873Z,24.07
2023-04-18T20:14:11.461Z,27.83
2023-04-18T20:16:39.340Z,24.00
2023-04-18T20:19:06.565Z,21.20
2023-04-18T20:21:33.901Z,23.57
2023-04-18T20:24:01.454Z,22.87
2023-04-18T20:26:28.972Z,25.17
2023-04-18T20:28:56.340Z,24.63
2023-04-18T20:31:24.028Z,24.40
2023-04-18T20:33:51.285Z,23.83
2023-04-18T20:36:18.871Z,26.03
2023-04-18T20:38:52.356Z,24.40
2023-04-18T20:41:21.530Z,22.40
2023-04-18T20:43:48.801Z,24.90
2023-04-18T20:46:16.445Z,26.80
2023-04-18T20:48:44.762Z,24.80
2023-04-18T20:51:12.040Z,31.20
2023-04-18T20:53:39.389Z,38.13
2023-04-18T20:56:06.811Z,37.50
2023-04-18T20:58:34.269Z,38.90
2023-04-18T21:01:01.840Z,36.37
2023-04-18T21:03:29.359Z,29.27
2023-04-18T21:05:56.824Z,35.20
2023-04-18T21:08:24.160Z,31.47
2023-04-18T21:10:51.601Z,35.23
2023-04-18T21:13:18.863Z,36.03
2023-04-18T21:15:46.429Z,35.60
2023-04-18T21:18:13.738Z,41.43
2023-04-18T21:20:41.025Z,42.50
2023-04-18T21:23:08.383Z,45.40
2023-04-18T21:25:35.824Z,41.97
2023-04-18T21:28:04.642Z,37.63
2023-04-18T21:30:31.951Z,36.60
2023-04-18T21:32:59.937Z,37.50
2023-04-18T21:35:27.291Z,36.37
2023-04-18T21:37:54.542Z,40.47
2023-04-18T21:40:22.097Z,37.13
2023-04-18T21:42:52.186Z,37.90
2023-04-18T21:45:19.802Z,36.53
2023-04-18T21:47:47.794Z,36.60
2023-04-18T21:50:15.160Z,40.17
2023-04-18T21:52:42.599Z,36.20
2023-04-18T21:55:10.289Z,35.70
2023-04-18T21:57:37.550Z,34.13
2023-04-18T22:00:09.916Z,41.77
2023-04-18T22:02:38.117Z,36.57
2023-04-18T22:05:06.080Z,41.10
2023-04-18T22:07:34.176Z,35.47
2023-04-18T22:10:02.865Z,34.07
2023-04-18T22:12:30.275Z,33.10
2023-04-18T22:14:57.598Z,36.57
2023-04-18T22:17:26.364Z,31.83
2023-04-18T22:19:53.901Z,31.57
2023-04-18T22:22:21.499Z,30.57
2023-04-18T22:24:48.724Z,31.43
2023-04-18T22:27:16.227Z,34.47
2023-04-18T22:29:43.447Z,33.17
2023-04-18T22:32:10.943Z,37.37
2023-04-18T22:34:38.304Z,33.27
2023-04-18T22:37:07.303Z,35.47
2023-04-18T22:39:34.770Z,31.33
2023-04-18T22:42:02.999Z,33.63
2023-04-18T22:44:30.282Z,33.77
2023-04-18T22:46:57.551Z,35.13
2023-04-18T22:49:24.982Z,35.27
2023-04-18T22:51:54.641Z,33.07
2023-04-18T22:54:22.214Z,34.13
2023-04-18T22:56:50.645Z,35.30
2023-04-18T22:59:18.214Z,33.33
2023-04-18T23:01:45.566Z,32.27
2023-04-18T23:04:13.274Z,30.40
2023-04-18T23:06:40.709Z,32.20
2023-04-18T23:09:11.087Z,33.40
2023-04-18T23:11:38.374Z,32.13
2023-04-18T23:14:06.652Z,33.07
2023-04-18T23:16:34.031Z,31.23
2023-04-18T23:19:01.431Z,27.20
2023-04-18T23:21:29.244Z,29.50
2023-04-18T23:23:56.496Z,31.60
2023-04-18T23:26:25.526Z,30.13
2023-04-18T23:28:53.427Z,33.03
2023-04-18T23:31:20.746Z,28.60
2023-04-18T23:33:48.395Z,34.27
2023-04-18T23:36:15.789Z,29.30
2023-04-18T23:38:43.201Z,29.10
2023-04-18T23:41:10.652Z,30.37
2023-04-18T23:43:37.948Z,28.63
2023-04-18T23:46:05.301Z,27.13
2023-04-18T23:48:32.613Z,30.43
2023-04-18T23:51:00.141Z,29.23
2023-04-18T23:53:27.457Z,30.00
2023-04-18T23:55:54.989Z,29.20
2023-04-18T23:58:22.446Z,31.00
